createdAt,value
2023-05-19T00:01:37.627Z,71.09
2023-05-19T00:04:27.100Z,70.92
2023-05-19T00:07:19.914Z,71.23
2023-05-19T00:10:08.660Z,71.52
2023-05-19T00:12:56.813Z,71.26
2023-05-19T00:15:45.057Z,72.58
2023-05-19T00:18:33.383Z,71.83
2023-05-19T00:21:21.458Z,72.51
2023-05-19T00:24:09.358Z,73.35
2023-05-19T00:26:57.090Z,73.41
2023-05-19T00:29:45.166Z,73.94
2023-05-19T00:32:32.991Z,73.86
2023-05-19T00:35:21.824Z,74.44
2023-05-19T00:38:09.574Z,75.23
2023-05-19T00:40:57.716Z,75.30
2023-05-19T00:43:45.983Z,75.17
2023-05-19T00:46:34.191Z,75.28
2023-05-19T00:49:22.034Z,75.41
2023-05-19T00:52:10.078Z,75.77
2023-05-19T00:54:58.017Z,75.91
2023-05-19T00:57:48.016Z,76.70
2023-05-19T01:00:37.030Z,77.50
2023-05-19T01:03:25.412Z,77.47
2023-05-19T01:06:13.434Z,78.49
2023-05-19T01:09:01.233Z,77.81
2023-05-19T01:11:52.634Z,78.15
2023-05-19T01:14:40.817Z,78.63
2023-05-19T01:18:16.834Z,79.39
2023-05-19T01:21:23.702Z,79.08
2023-05-19T01:24:53.403Z,78.99
2023-05-19T01:28:18.737Z,80.09
2023-05-19T01:31:10.103Z,79.87
2023-05-19T01:34:01.323Z,80.71
2023-05-19T01:36:51.355Z,80.47
2023-05-19T01:39:42.413Z,80.68
2023-05-19T01:42:37.295Z,81.27
2023-05-19T01:45:29.121Z,81.74
2023-05-19T01:48:18.483Z,81.28
2023-05-19T01:51:06.483Z,81.28
2023-05-19T01:53:54.337Z,81.74
2023-05-19T01:57:00.386Z,81.91
2023-05-19T02:00:11.732Z,82.03
2023-05-19T02:03:13.914Z,82.23
2023-05-19T02:06:36.885Z,82.42
2023-05-19T02:10:10.741Z,83.10
2023-05-19T02:13:06.495Z,83.39
2023-05-19T02:16:03.897Z,82.96
2023-05-19T02:18:52.074Z,83.27
2023-05-19T02:21:39.886Z,83.29
2023-05-19T02:24:27.683Z,83.93
2023-05-19T02:27:15.422Z,83.91
2023-05-19T02:30:09.397Z,84.16
2023-05-19T02:32:57.897Z,84.38
2023-05-19T02:35:45.826Z,85.37
2023-05-19T02:38:36.333Z,84.93
2023-05-19T02:41:24.126Z,85.40
2023-05-19T02:44:11.930Z,84.63
2023-05-19T02:46:59.715Z,85.49
2023-05-19T02:49:47.562Z,85.65
2023-05-19T02:52:36.612Z,86.04
2023-05-19T02:55:24.557Z,86.78
2023-05-19T02:58:12.859Z,86.69
2023-05-19T03:01:00.985Z,86.81
2023-05-19T03:03:49.077Z,87.14
2023-05-19T03:06:38.670Z,87.15
2023-05-19T03:09:26.536Z,87.31
2023-05-19T03:12:14.432Z,87.37
2023-05-19T03:15:02.298Z,87.72
2023-05-19T03:17:50.488Z,87.90
2023-05-19T03:20:40.284Z,87.78
2023-05-19T03:23:29.508Z,88.42
2023-05-19T03:26:17.249Z,88.36
2023-05-19T03:29:05.992Z,88.74
2023-05-19T03:31:56.594Z,89.14
2023-05-19T03:34:44.453Z,89.30
2023-05-19T03:37:35.148Z,89.40
2023-05-19T03:40:23.415Z,89.19
2023-05-19T03:43:14.455Z,89.65
2023-05-19T03:46:07.713Z,89.38
2023-05-19T03:49:20.365Z,89.37
2023-05-19T03:52:26.812Z,89.63
2023-05-19T03:55:21.341Z,90.50
2023-05-19T03:58:10.670Z,90.68
2023-05-19T04:00:58.427Z,91.20
2023-05-19T04:03:46.654Z,91.18
2023-05-19T04:06:36.230Z,91.92
2023-05-19T04:09:24.170Z,91.93
2023-05-19T04:12:12.084Z,92.28
2023-05-19T04:15:00.521Z,92.23
2023-05-19T04:17:48.466Z,92.27
2023-05-19T04:20:36.374Z,92.57
2023-05-19T04:23:24.532Z,92.87
2023-05-19T04:26:14.805Z,92.91
2023-05-19T04:29:04.757Z,92.64
2023-05-19T04:31:53.654Z,92.73
2023-05-19T04:34:45.338Z,92.91
2023-05-19T04:37:39.106Z,93.26
2023-05-19T04:40:31.218Z,93.32
2023-05-19T04:43:19.606Z,93.33
2023-05-19T04:46:13.245Z,92.75
2023-05-19T04:49:03.080Z,92.22
2023-05-19T04:51:54.855Z,92.15
2023-05-19T04:54:46.651Z,92.66
2023-05-19T04:57:34.779Z,92.17
2023-05-19T05:00:23.031Z,92.06
2023-05-19T05:03:19.218Z,92.83
2023-05-19T05:06:07.287Z,93.18
2023-05-19T05:08:55.087Z,93.14
2023-05-19T05:11:44.199Z,93.51
2023-05-19T05:14:32.283Z,93.95
2023-05-19T05:17:20.569Z,94.58
2023-05-19T05:20:09.947Z,94.22
2023-05-19T05:22:58.199Z,93.90
2023-05-19T05:25:47.520Z,94.73
2023-05-19T05:28:36.787Z,94.35
2023-05-19T05:31:24.713Z,93.93
2023-05-19T05:34:13.081Z,94.31
2023-05-19T05:37:01.983Z,94.45
2023-05-19T05:39:49.862Z,94.84
2023-05-19T05:42:37.651Z,94.39
2023-05-19T05:45:26.811Z,93.49
2023-05-19T05:48:16.357Z,94.47
2023-05-19T05:51:05.917Z,93.95
2023-05-19T05:53:55.695Z,93.60
2023-05-19T05:56:51.699Z,93.16
2023-05-19T05:59:40.744Z,92.99
2023-05-19T06:02:29.958Z,92.96
2023-05-19T06:05:20.291Z,92.53
2023-05-19T06:08:09.239Z,92.08
2023-05-19T06:10:58.916Z,91.99
2023-05-19T06:13:47.869Z,90.67
2023-05-19T06:16:48.224Z,90.01
2023-05-19T06:19:37.216Z,89.25
2023-05-19T06:22:25.051Z,87.79
2023-05-19T06:25:14.343Z,87.37
2023-05-19T06:28:03.655Z,87.27
2023-05-19T06:30:51.585Z,87.53
2023-05-19T06:33:58.166Z,87.16
2023-05-19T06:36:46.180Z,87.01
2023-05-19T06:39:34.471Z,86.87
2023-05-19T06:42:23.064Z,86.43
2023-05-19T06:45:25.821Z,85.85
2023-05-19T06:48:13.600Z,85.52
2023-05-19T06:51:02.153Z,85.24
2023-05-19T06:53:52.039Z,83.50
2023-05-19T06:56:39.893Z,81.38
2023-05-19T06:59:28.280Z,80.47
2023-05-19T07:02:16.716Z,80.00
2023-05-19T07:05:05.340Z,78.96
2023-05-19T07:07:53.254Z,79.07
2023-05-19T07:10:44.995Z,78.33
2023-05-19T07:13:35.789Z,76.54
2023-05-19T07:16:23.719Z,76.50
2023-05-19T07:19:12.008Z,76.22
2023-05-19T07:21:59.941Z,75.31
2023-05-19T07:24:47.897Z,72.82
2023-05-19T07:27:36.658Z,71.28
2023-05-19T07:30:24.665Z,71.69
2023-05-19T07:33:12.573Z,69.50
2023-05-19T07:36:00.634Z,69.14
2023-05-19T07:38:48.558Z,67.89
2023-05-19T07:41:36.597Z,67.30
2023-05-19T07:44:24.420Z,66.30
2023-05-19T07:47:12.219Z,65.66
2023-05-19T07:49:59.977Z,64.80
2023-05-19T07:52:47.719Z,64.33
2023-05-19T07:55:35.458Z,63.78
2023-05-19T07:58:23.281Z,64.04
2023-05-19T08:01:11.089Z,62.41
2023-05-19T08:03:58.938Z,62.65
2023-05-19T08:06:46.830Z,62.56
2023-05-19T08:09:34.634Z,61.93
2023-05-19T08:12:22.401Z,60.93
2023-05-19T08:15:11.810Z,59.19
2023-05-19T08:17:59.608Z,59.04
2023-05-19T08:20:47.521Z,58.83
2023-05-19T08:23:37.200Z,58.73
2023-05-19T08:26:25.062Z,58.05
2023-05-19T08:29:12.884Z,57.16
2023-05-19T08:32:01.727Z,57.47
2023-05-19T08:34:49.877Z,57.89
2023-05-19T08:37:38.622Z,55.22
2023-05-19T08:40:31.497Z,54.38
2023-05-19T08:43:19.623Z,54.59
2023-05-19T08:46:08.356Z,54.15
2023-05-19T08:49:05.082Z,52.94
2023-05-19T08:52:15.758Z,52.18
2023-05-19T08:55:09.573Z,52.18
2023-05-19T08:57:57.562Z,53.23
2023-05-19T09:00:46.555Z,52.32
2023-05-19T09:03:39.287Z,52.85
2023-05-19T09:06:27.714Z,53.65
2023-05-19T09:09:16.031Z,53.26
2023-05-19T09:12:04.418Z,52.77
2023-05-19T09:14:52.973Z,53.26
2023-05-19T09:17:41.015Z,53.36
2023-05-19T09:20:30.821Z,53.27
2023-05-19T09:23:18.590Z,50.01
2023-05-19T09:26:07.392Z,50.15
2023-05-19T09:28:58.394Z,49.15
2023-05-19T09:32:01.617Z,46.43
2023-05-19T09:34:51.075Z,45.99
2023-05-19T09:37:43.115Z,46.39
2023-05-19T09:40:32.746Z,45.20
2023-05-19T09:43:21.643Z,45.73
2023-05-19T09:46:14.569Z,44.87
2023-05-19T09:49:09.872Z,43.03
2023-05-19T09:52:00.194Z,43.86
2023-05-19T09:54:49.119Z,45.20
2023-05-19T09:57:38.256Z,45.52
2023-05-19T10:00:27.399Z,44.30
2023-05-19T10:03:17.822Z,43.77
2023-05-19T10:06:07.433Z,43.56
2023-05-19T10:08:57.146Z,45.04
2023-05-19T10:11:45.656Z,46.30
2023-05-19T10:14:33.499Z,44.53
2023-05-19T10:17:22.493Z,44.33
2023-05-19T10:20:16.346Z,44.46
2023-05-19T10:23:04.341Z,44.71
2023-05-19T10:25:58.460Z,44.79
2023-05-19T10:28:46.456Z,44.24
2023-05-19T10:31:36.214Z,43.23
2023-05-19T10:34:52.056Z,43.65
2023-05-19T10:37:51.737Z,42.94
2023-05-19T10:41:02.701Z,42.94
2023-05-19T10:44:10.132Z,43.12
2023-05-19T10:46:58.228Z,43.80
2023-05-19T10:49:46.720Z,42.96
2023-05-19T10:52:38.867Z,44.34
2023-05-19T10:55:56.727Z,42.91
2023-05-19T10:58:52.322Z,43.75
2023-05-19T11:01:41.679Z,43.50
2023-05-19T11:04:51.867Z,42.94
2023-05-19T11:07:44.864Z,42.39
2023-05-19T11:10:32.897Z,40.74
2023-05-19T11:13:23.680Z,40.75
2023-05-19T11:16:11.704Z,40.78
2023-05-19T11:19:00.587Z,41.96
2023-05-19T11:21:55.220Z,41.17
2023-05-19T11:24:50.600Z,41.40
2023-05-19T11:27:40.177Z,41.92
2023-05-19T11:30:29.778Z,42.01
2023-05-19T11:33:19.454Z,40.91
2023-05-19T11:36:11.059Z,40.38
2023-05-19T11:39:01.294Z,40.50
2023-05-19T11:41:51.595Z,40.61
2023-05-19T11:44:41.229Z,41.34
2023-05-19T11:47:38.789Z,40.32
2023-05-19T11:50:38.108Z,40.33
2023-05-19T11:53:26.123Z,38.98
2023-05-19T11:56:15.178Z,39.02
2023-05-19T11:59:04.137Z,38.93
2023-05-19T12:01:51.995Z,39.34
2023-05-19T12:04:39.918Z,38.49
2023-05-19T12:07:28.004Z,38.67
2023-05-19T12:10:16.227Z,38.54
2023-05-19T12:13:08.076Z,38.77
2023-05-19T12:16:01.295Z,38.93
2023-05-19T12:18:49.215Z,39.48
2023-05-19T12:21:37.568Z,39.66
2023-05-19T12:24:25.464Z,39.37
2023-05-19T12:27:22.393Z,39.10
2023-05-19T12:30:12.765Z,39.00
2023-05-19T12:33:02.843Z,39.37
2023-05-19T12:35:51.511Z,39.02
2023-05-19T12:38:39.810Z,40.34
2023-05-19T12:41:29.043Z,39.72
2023-05-19T12:44:17.571Z,39.42
2023-05-19T12:47:07.175Z,39.44
2023-05-19T12:50:09.963Z,38.86
2023-05-19T12:52:59.858Z,38.97
2023-05-19T12:55:47.818Z,38.55
2023-05-19T12:58:37.447Z,39.15
2023-05-19T13:01:25.326Z,39.63
2023-05-19T13:04:13.407Z,38.29
2023-05-19T13:07:01.779Z,39.06
2023-05-19T13:09:49.862Z,39.49
2023-05-19T13:12:37.780Z,38.03
2023-05-19T13:15:31.681Z,38.80
2023-05-19T13:18:19.719Z,38.99
2023-05-19T13:21:07.510Z,38.72
2023-05-19T13:23:55.277Z,38.49
2023-05-19T13:26:43.246Z,38.71
2023-05-19T13:29:31.098Z,38.20
2023-05-19T13:32:18.914Z,37.69
2023-05-19T13:35:07.357Z,36.98
2023-05-19T13:37:55.225Z,37.94
2023-05-19T13:40:44.446Z,38.85
2023-05-19T13:43:32.243Z,38.16
2023-05-19T13:46:26.545Z,38.69
2023-05-19T13:49:21.085Z,38.92
2023-05-19T13:52:08.927Z,37.66
2023-05-19T13:54:56.989Z,36.81
2023-05-19T13:57:44.966Z,37.42
2023-05-19T14:00:33.233Z,37.51
2023-05-19T14:03:21.359Z,37.43
2023-05-19T14:06:09.269Z,37.09
2023-05-19T14:08:57.039Z,36.47
2023-05-19T14:11:44.854Z,36.30
2023-05-19T14:14:32.755Z,36.88
2023-05-19T14:17:20.586Z,38.41
2023-05-19T14:20:09.734Z,37.62
2023-05-19T14:22:57.808Z,37.26
2023-05-19T14:25:45.810Z,37.95
2023-05-19T14:28:33.670Z,38.24
2023-05-19T14:31:21.536Z,37.80
2023-05-19T14:34:09.535Z,38.19
2023-05-19T14:36:57.836Z,37.14
2023-05-19T14:39:45.743Z,36.57
2023-05-19T14:42:33.522Z,36.97
2023-05-19T14:45:21.505Z,36.35
2023-05-19T14:48:11.780Z,37.37
2023-05-19T14:50:59.762Z,37.06
2023-05-19T14:53:49.070Z,36.85
2023-05-19T14:56:36.918Z,36.30
2023-05-19T14:59:25.053Z,36.73
2023-05-19T15:02:12.879Z,37.42
2023-05-19T15:05:01.032Z,37.21
2023-05-19T15:07:48.906Z,36.38
2023-05-19T15:10:36.745Z,36.88
2023-05-19T15:13:26.245Z,36.27
2023-05-19T15:16:16.918Z,35.86
2023-05-19T15:19:05.792Z,36.42
2023-05-19T15:21:53.827Z,36.91
2023-05-19T15:24:41.596Z,37.03
2023-05-19T15:27:29.512Z,37.14
2023-05-19T15:30:17.400Z,37.10
2023-05-19T15:33:05.345Z,36.50
2023-05-19T15:35:53.390Z,36.29
2023-05-19T15:38:41.202Z,35.80
2023-05-19T15:41:29.033Z,36.46
2023-05-19T15:44:17.167Z,35.95
2023-05-19T15:47:05.247Z,35.23
2023-05-19T15:49:53.014Z,35.39
2023-05-19T15:52:40.883Z,35.99
2023-05-19T15:55:28.734Z,34.71
2023-05-19T15:58:16.665Z,35.08
2023-05-19T16:01:05.102Z,34.16
2023-05-19T16:03:53.076Z,34.14
2023-05-19T16:06:40.946Z,34.42
2023-05-19T16:09:28.776Z,35.04
2023-05-19T16:12:16.579Z,35.35
2023-05-19T16:15:04.951Z,35.64
2023-05-19T16:17:54.912Z,35.88
2023-05-19T16:20:44.034Z,35.38
2023-05-19T16:23:31.958Z,36.47
2023-05-19T16:26:19.765Z,35.90
2023-05-19T16:29:07.488Z,35.15
2023-05-19T16:31:55.382Z,35.11
2023-05-19T16:34:43.189Z,34.66
2023-05-19T16:37:31.138Z,34.86
2023-05-19T16:40:19.830Z,34.88
2023-05-19T16:43:07.579Z,35.17
2023-05-19T16:45:55.425Z,35.09
2023-05-19T16:48:43.261Z,34.69
2023-05-19T16:51:31.054Z,35.02
2023-05-19T16:54:18.837Z,35.27
2023-05-19T16:57:06.613Z,35.57
2023-05-19T16:59:54.468Z,36.16
2023-05-19T17:02:42.410Z,35.50
2023-05-19T17:05:30.484Z,35.94
2023-05-19T17:08:18.409Z,35.93
2023-05-19T17:11:06.614Z,35.60
2023-05-19T17:13:54.540Z,35.31
2023-05-19T17:16:42.396Z,35.47
2023-05-19T17:19:30.217Z,36.25
2023-05-19T17:22:18.006Z,35.80
2023-05-19T17:25:07.047Z,36.19
2023-05-19T17:27:55.784Z,35.90
2023-05-19T17:30:43.547Z,36.13
2023-05-19T17:33:31.337Z,35.99
2023-05-19T17:36:19.463Z,36.00
2023-05-19T17:39:07.680Z,35.27
2023-05-19T17:41:55.495Z,35.96
2023-05-19T17:44:43.289Z,36.25
2023-05-19T17:47:31.136Z,36.19
2023-05-19T17:50:18.998Z,36.10
2023-05-19T17:53:07.143Z,36.08
2023-05-19T17:56:03.379Z,36.43
2023-05-19T17:58:51.901Z,36.74
2023-05-19T18:01:40.870Z,36.46
2023-05-19T18:04:29.695Z,36.86
2023-05-19T18:07:18.584Z,37.16
2023-05-19T18:10:08.225Z,37.46
2023-05-19T18:12:55.997Z,37.27
2023-05-19T18:15:46.349Z,37.29
2023-05-19T18:18:37.318Z,37.27
2023-05-19T18:21:25.325Z,37.73
2023-05-19T18:24:13.423Z,38.12
2023-05-19T18:27:01.711Z,38.52
2023-05-19T18:29:49.734Z,38.54
2023-05-19T18:32:37.744Z,38.47
2023-05-19T18:35:25.669Z,38.89
2023-05-19T18:38:13.498Z,39.01
2023-05-19T18:41:01.603Z,39.13
2023-05-19T18:43:49.575Z,39.06
2023-05-19T18:46:37.532Z,39.09
2023-05-19T18:49:25.560Z,39.54
2023-05-19T18:52:13.350Z,39.85
2023-05-19T18:55:01.479Z,40.31
2023-05-19T18:57:49.284Z,40.26
2023-05-19T19:00:37.307Z,40.47
2023-05-19T19:03:25.209Z,40.78
2023-05-19T19:06:13.204Z,40.95
2023-05-19T19:09:03.602Z,41.17
2023-05-19T19:11:51.546Z,41.44
2023-05-19T19:14:39.599Z,41.55
2023-05-19T19:17:27.456Z,41.80
2023-05-19T19:20:15.497Z,42.05
2023-05-19T19:23:06.961Z,42.42
2023-05-19T19:25:57.357Z,42.81
2023-05-19T19:28:46.425Z,43.18
2023-05-19T19:31:34.759Z,43.42
2023-05-19T19:34:22.838Z,43.60
2023-05-19T19:37:11.166Z,44.20
2023-05-19T19:39:59.038Z,44.69
2023-05-19T19:42:46.920Z,45.05
2023-05-19T19:45:36.419Z,45.36
2023-05-19T19:48:27.419Z,45.96
2023-05-19T19:51:15.364Z,46.20
2023-05-19T19:54:03.190Z,46.77
2023-05-19T19:56:51.429Z,47.29
2023-05-19T19:59:39.360Z,47.50
2023-05-19T20:02:27.376Z,47.84
2023-05-19T20:05:15.286Z,48.10
2023-05-19T20:08:05.757Z,48.38
2023-05-19T20:10:54.461Z,48.64
2023-05-19T20:13:42.410Z,49.02
2023-05-19T20:16:30.507Z,48.98
2023-05-19T20:19:18.655Z,49.35
2023-05-19T20:22:06.552Z,49.62
2023-05-19T20:24:54.692Z,50.02
2023-05-19T20:27:42.608Z,50.01
2023-05-19T20:30:33.446Z,50.35
2023-05-19T20:33:24.202Z,50.61
2023-05-19T20:36:12.138Z,51.06
2023-05-19T20:38:59.985Z,51.27
2023-05-19T20:41:47.900Z,51.29
2023-05-19T20:44:35.736Z,51.54
2023-05-19T20:47:28.308Z,51.56
2023-05-19T20:50:21.162Z,52.24
2023-05-19T20:53:09.050Z,52.46
2023-05-19T20:55:56.882Z,52.89
2023-05-19T20:58:44.813Z,53.22
2023-05-19T21:01:34.337Z,53.43
2023-05-19T21:04:22.325Z,53.23
2023-05-19T21:07:10.353Z,53.85
2023-05-19T21:09:58.308Z,53.95
2023-05-19T21:12:46.816Z,54.26
2023-05-19T21:15:34.627Z,55.03
2023-05-19T21:18:22.594Z,55.05
2023-05-19T21:21:10.805Z,54.93
2023-05-19T21:23:59.303Z,55.31
2023-05-19T21:26:49.235Z,54.98
2023-05-19T21:29:40.426Z,55.37
2023-05-19T21:32:31.663Z,55.78
2023-05-19T21:35:19.494Z,55.76
2023-05-19T21:38:22.049Z,56.09
2023-05-19T21:41:13.339Z,56.00
2023-05-19T21:44:01.233Z,56.68
2023-05-19T21:46:49.415Z,56.37
2023-05-19T21:49:39.987Z,56.84
2023-05-19T21:52:28.239Z,57.02
2023-05-19T21:55:23.216Z,57.25
2023-05-19T21:58:11.232Z,57.23
2023-05-19T22:01:02.163Z,57.30
2023-05-19T22:03:50.320Z,57.02
2023-05-19T22:06:40.986Z,57.35
2023-05-19T22:09:29.222Z,57.53
2023-05-19T22:12:17.372Z,57.68
2023-05-19T22:15:06.692Z,57.74
2023-05-19T22:17:54.695Z,58.04
2023-05-19T22:20:43.213Z,58.35
2023-05-19T22:23:36.000Z,58.25
2023-05-19T22:26:31.343Z,59.10
2023-05-19T22:29:20.291Z,58.55
2023-05-19T22:32:11.982Z,58.91
2023-05-19T22:35:00.044Z,58.72
2023-05-19T22:37:47.747Z,59.51
2023-05-19T22:40:36.022Z,60.26
2023-05-19T22:43:24.111Z,59.95
2023-05-19T22:46:12.055Z,60.22
2023-05-19T22:49:00.017Z,60.20
2023-05-19T22:51:47.962Z,60.60
2023-05-19T22:54:36.185Z,61.19
2023-05-19T22:57:24.153Z,61.56
2023-05-19T23:00:18.493Z,62.16
2023-05-19T23:03:06.512Z,62.53
2023-05-19T23:05:57.059Z,62.93
2023-05-19T23:08:46.880Z,63.69
2023-05-19T23:11:36.071Z,64.27
2023-05-19T23:14:26.822Z,64.78
2023-05-19T23:17:14.758Z,64.78
2023-05-19T23:20:02.972Z,65.34
2023-05-19T23:22:50.902Z,65.33
2023-05-19T23:25:39.059Z,65.99
2023-05-19T23:28:27.188Z,66.29
2023-05-19T23:31:15.189Z,66.95
2023-05-19T23:34:03.473Z,66.97
2023-05-19T23:36:51.493Z,67.03
2023-05-19T23:39:39.490Z,67.31
2023-05-19T23:42:27.345Z,67.97
2023-05-19T23:45:16.014Z,67.65
2023-05-19T23:48:04.165Z,68.02
2023-05-19T23:50:52.145Z,68.00
2023-05-19T23:53:40.127Z,68.60
2023-05-19T23:56:28.013Z,69.01
2023-05-19T23:59:15.824Z,69.29
